sensor_id;sensor_type;location;lat;lon;timestamp;temperature;humidity
27540;DHT22;15906;52.046;4.724;2022-09-25T00:02:13;10.90;99.90
27540;DHT22;15906;52.046;4.724;2022-09-25T00:04:38;10.90;99.90
27540;DHT22;15906;52.046;4.724;2022-09-25T00:07:03;10.90;99.90
27540;DHT22;15906;52.046;4.724;2022-09-25T00:09:29;10.90;99.90
27540;DHT22;15906;52.046;4.724;2022-09-25T00:11:54;10.90;99.90
27540;DHT22;15906;52.046;4.724;2022-09-25T00:14:20;10.90;99.90
27540;DHT22;15906;52.046;4.724;2022-09-25T00:16:45;10.90;99.90
27540;DHT22;15906;52.046;4.724;2022-09-25T00:19:19;10.90;99.90
27540;DHT22;15906;52.046;4.724;2022-09-25T00:22:04;10.90;99.90
27540;DHT22;15906;52.046;4.724;2022-09-25T00:24:30;10.90;99.90
27540;DHT22;15906;52.046;4.724;2022-09-25T00:26:56;10.90;99.90
27540;DHT22;15906;52.046;4.724;2022-09-25T00:29:22;10.80;99.90
27540;DHT22;15906;52.046;4.724;2022-09-25T00:31:47;10.80;99.90
27540;DHT22;15906;52.046;4.724;2022-09-25T00:34:13;10.80;99.90
27540;DHT22;15906;52.046;4.724;2022-09-25T00:36:38;10.80;99.90
27540;DHT22;15906;52.046;4.724;2022-09-25T00:39:04;10.80;99.90
27540;DHT22;15906;52.046;4.724;2022-09-25T00:41:30;10.70;99.90
27540;DHT22;15906;52.046;4.724;2022-09-25T00:43:58;10.70;99.90
27540;DHT22;15906;52.046;4.724;2022-09-25T00:46:31;10.70;99.90
27540;DHT22;15906;52.046;4.724;2022-09-25T00:49:04;10.70;99.90
27540;DHT22;15906;52.046;4.724;2022-09-25T00:51:38;10.70;99.90
27540;DHT22;15906;52.046;4.724;2022-09-25T00:54:09;10.70;99.90
27540;DHT22;15906;52.046;4.724;2022-09-25T00:56:41;10.70;99.90
27540;DHT22;15906;52.046;4.724;2022-09-25T00:59:10;10.70;99.90
27540;DHT22;15906;52.046;4.724;2022-09-25T01:01:37;10.60;99.90
27540;DHT22;15906;52.046;4.724;2022-09-25T01:04:02;10.60;99.90
27540;DHT22;15906;52.046;4.724;2022-09-25T01:06:28;10.60;99.90
27540;DHT22;15906;52.046;4.724;2022-09-25T01:08:54;10.60;99.90
27540;DHT22;15906;52.046;4.724;2022-09-25T01:11:21;10.60;99.90
27540;DHT22;15906;52.046;4.724;2022-09-25T01:13:46;10.60;99.90
27540;DHT22;15906;52.046;4.724;2022-09-25T01:21:32;10.50;99.90
27540;DHT22;15906;52.046;4.724;2022-09-25T01:24:32;10.50;99.90
27540;DHT22;15906;52.046;4.724;2022-09-25T01:27:27;10.50;99.90
27540;DHT22;15906;52.046;4.724;2022-09-25T01:30:03;10.50;99.90
27540;DHT22;15906;52.046;4.724;2022-09-25T01:32:45;10.40;99.90
27540;DHT22;15906;52.046;4.724;2022-09-25T01:38:32;10.40;99.90
27540;DHT22;15906;52.046;4.724;2022-09-25T01:41:15;10.30;99.90
27540;DHT22;15906;52.046;4.724;2022-09-25T01:43:57;10.30;99.90
27540;DHT22;15906;52.046;4.724;2022-09-25T01:46:28;10.30;99.90
27540;DHT22;15906;52.046;4.724;2022-09-25T01:49:07;10.40;99.90
27540;DHT22;15906;52.046;4.724;2022-09-25T01:51:41;10.40;99.90
27540;DHT22;15906;52.046;4.724;2022-09-25T01:54:10;10.30;99.90
27540;DHT22;15906;52.046;4.724;2022-09-25T01:57:28;10.30;99.90
27540;DHT22;15906;52.046;4.724;2022-09-25T01:59:45;10.30;99.90
27540;DHT22;15906;52.046;4.724;2022-09-25T02:02:17;10.30;99.90
27540;DHT22;15906;52.046;4.724;2022-09-25T02:04:55;10.30;99.90
27540;DHT22;15906;52.046;4.724;2022-09-25T02:07:28;10.30;99.90
27540;DHT22;15906;52.046;4.724;2022-09-25T02:09:57;10.30;99.90
27540;DHT22;15906;52.046;4.724;2022-09-25T02:12:31;10.40;99.90
27540;DHT22;15906;52.046;4.724;2022-09-25T02:17:45;10.40;99.90
27540;DHT22;15906;52.046;4.724;2022-09-25T02:20:32;10.50;99.90
27540;DHT22;15906;52.046;4.724;2022-09-25T02:23:21;10.50;99.90
27540;DHT22;15906;52.046;4.724;2022-09-25T02:25:55;10.50;99.90
27540;DHT22;15906;52.046;4.724;2022-09-25T02:28:24;10.50;99.90
27540;DHT22;15906;52.046;4.724;2022-09-25T02:30:51;10.50;99.90
27540;DHT22;15906;52.046;4.724;2022-09-25T02:33:18;10.60;99.90
27540;DHT22;15906;52.046;4.724;2022-09-25T02:35:44;10.60;99.90
27540;DHT22;15906;52.046;4.724;2022-09-25T02:38:10;10.60;99.90
27540;DHT22;15906;52.046;4.724;2022-09-25T02:40:51;10.70;99.90
27540;DHT22;15906;52.046;4.724;2022-09-25T02:49:14;10.70;99.90
27540;DHT22;15906;52.046;4.724;2022-09-25T02:51:54;10.70;99.90
27540;DHT22;15906;52.046;4.724;2022-09-25T02:59:51;10.70;99.90
27540;DHT22;15906;52.046;4.724;2022-09-25T03:02:18;10.80;99.90
27540;DHT22;15906;52.046;4.724;2022-09-25T03:04:45;10.80;99.90
27540;DHT22;15906;52.046;4.724;2022-09-25T03:07:12;10.80;99.90
27540;DHT22;15906;52.046;4.724;2022-09-25T03:09:40;10.80;99.90
27540;DHT22;15906;52.046;4.724;2022-09-25T03:12:08;10.80;99.90
27540;DHT22;15906;52.046;4.724;2022-09-25T03:14:33;10.80;99.90
27540;DHT22;15906;52.046;4.724;2022-09-25T03:17:01;10.90;99.90
27540;DHT22;15906;52.046;4.724;2022-09-25T03:19:29;10.80;99.90
27540;DHT22;15906;52.046;4.724;2022-09-25T03:21:55;10.80;99.90
27540;DHT22;15906;52.046;4.724;2022-09-25T03:24:20;10.80;99.90
27540;DHT22;15906;52.046;4.724;2022-09-25T03:26:46;10.90;99.90
27540;DHT22;15906;52.046;4.724;2022-09-25T03:29:13;10.90;99.90
27540;DHT22;15906;52.046;4.724;2022-09-25T03:31:39;10.80;99.90
27540;DHT22;15906;52.046;4.724;2022-09-25T03:34:06;10.80;99.90
27540;DHT22;15906;52.046;4.724;2022-09-25T03:36:32;10.80;99.90
27540;DHT22;15906;52.046;4.724;2022-09-25T03:38:59;10.90;99.90
27540;DHT22;15906;52.046;4.724;2022-09-25T03:41:26;11.00;99.90
27540;DHT22;15906;52.046;4.724;2022-09-25T03:43:52;11.00;99.90
27540;DHT22;15906;52.046;4.724;2022-09-25T03:46:21;11.00;99.90
27540;DHT22;15906;52.046;4.724;2022-09-25T03:48:47;11.00;99.90
27540;DHT22;15906;52.046;4.724;2022-09-25T03:51:13;11.00;99.90
27540;DHT22;15906;52.046;4.724;2022-09-25T03:53:39;10.90;99.90
27540;DHT22;15906;52.046;4.724;2022-09-25T03:56:08;11.00;99.90
27540;DHT22;15906;52.046;4.724;2022-09-25T03:58:35;11.00;99.90
27540;DHT22;15906;52.046;4.724;2022-09-25T04:01:01;11.10;99.90
27540;DHT22;15906;52.046;4.724;2022-09-25T04:03:27;11.10;99.90
27540;DHT22;15906;52.046;4.724;2022-09-25T04:05:58;11.10;99.90
27540;DHT22;15906;52.046;4.724;2022-09-25T04:08:25;11.10;99.90
27540;DHT22;15906;52.046;4.724;2022-09-25T04:10:55;11.10;99.90
27540;DHT22;15906;52.046;4.724;2022-09-25T04:13:24;11.00;99.90
27540;DHT22;15906;52.046;4.724;2022-09-25T04:15:49;11.00;99.90
27540;DHT22;15906;52.046;4.724;2022-09-25T04:18:16;11.00;99.90
27540;DHT22;15906;52.046;4.724;2022-09-25T04:20:41;11.00;99.90
27540;DHT22;15906;52.046;4.724;2022-09-25T04:23:07;11.00;99.90
27540;DHT22;15906;52.046;4.724;2022-09-25T04:25:32;11.00;99.90
27540;DHT22;15906;52.046;4.724;2022-09-25T04:27:58;11.00;99.90
27540;DHT22;15906;52.046;4.724;2022-09-25T04:30:25;11.00;99.90
27540;DHT22;15906;52.046;4.724;2022-09-25T04:32:51;11.00;99.90
27540;DHT22;15906;52.046;4.724;2022-09-25T04:35:36;11.00;99.90
27540;DHT22;15906;52.046;4.724;2022-09-25T04:38:02;11.00;99.90
27540;DHT22;15906;52.046;4.724;2022-09-25T04:40:28;11.00;99.90
27540;DHT22;15906;52.046;4.724;2022-09-25T04:42:58;11.00;99.90
27540;DHT22;15906;52.046;4.724;2022-09-25T04:45:24;11.00;99.90
27540;DHT22;15906;52.046;4.724;2022-09-25T04:47:52;10.90;99.90
27540;DHT22;15906;52.046;4.724;2022-09-25T04:50:18;10.80;99.90
27540;DHT22;15906;52.046;4.724;2022-09-25T04:52:44;10.80;99.90
27540;DHT22;15906;52.046;4.724;2022-09-25T04:55:09;10.80;99.90
27540;DHT22;15906;52.046;4.724;2022-09-25T04:57:35;10.80;99.90
27540;DHT22;15906;52.046;4.724;2022-09-25T05:00:01;10.80;99.90
27540;DHT22;15906;52.046;4.724;2022-09-25T05:02:27;10.80;99.90
27540;DHT22;15906;52.046;4.724;2022-09-25T05:04:53;10.70;99.90
27540;DHT22;15906;52.046;4.724;2022-09-25T05:07:18;10.70;99.90
27540;DHT22;15906;52.046;4.724;2022-09-25T05:09:44;10.70;99.90
27540;DHT22;15906;52.046;4.724;2022-09-25T05:12:09;10.70;99.90
27540;DHT22;15906;52.046;4.724;2022-09-25T05:14:35;10.60;99.90
27540;DHT22;15906;52.046;4.724;2022-09-25T05:17:00;10.70;99.90
27540;DHT22;15906;52.046;4.724;2022-09-25T05:19:26;10.70;99.90
27540;DHT22;15906;52.046;4.724;2022-09-25T05:21:52;10.70;99.90
27540;DHT22;15906;52.046;4.724;2022-09-25T05:24:18;10.60;99.90
27540;DHT22;15906;52.046;4.724;2022-09-25T05:26:44;10.60;99.90
27540;DHT22;15906;52.046;4.724;2022-09-25T05:29:09;10.60;99.90
27540;DHT22;15906;52.046;4.724;2022-09-25T05:31:35;10.60;99.90
27540;DHT22;15906;52.046;4.724;2022-09-25T05:34:01;10.60;99.90
27540;DHT22;15906;52.046;4.724;2022-09-25T05:36:29;10.60;99.90
27540;DHT22;15906;52.046;4.724;2022-09-25T05:38:55;10.70;99.90
27540;DHT22;15906;52.046;4.724;2022-09-25T05:41:20;10.60;99.90
27540;DHT22;15906;52.046;4.724;2022-09-25T05:43:46;10.70;99.90
27540;DHT22;15906;52.046;4.724;2022-09-25T05:46:12;10.70;99.90
27540;DHT22;15906;52.046;4.724;2022-09-25T05:48:38;10.70;99.90
27540;DHT22;15906;52.046;4.724;2022-09-25T05:51:03;10.70;99.90
27540;DHT22;15906;52.046;4.724;2022-09-25T05:53:29;10.70;99.90
27540;DHT22;15906;52.046;4.724;2022-09-25T05:55:59;10.70;99.90
27540;DHT22;15906;52.046;4.724;2022-09-25T05:58:27;10.70;99.90
27540;DHT22;15906;52.046;4.724;2022-09-25T06:00:54;10.70;99.90
27540;DHT22;15906;52.046;4.724;2022-09-25T06:03:20;10.70;99.90
27540;DHT22;15906;52.046;4.724;2022-09-25T06:05:48;10.70;99.90
27540;DHT22;15906;52.046;4.724;2022-09-25T06:08:14;10.70;99.90
27540;DHT22;15906;52.046;4.724;2022-09-25T06:10:40;10.80;99.90
27540;DHT22;15906;52.046;4.724;2022-09-25T06:13:11;10.80;99.90
27540;DHT22;15906;52.046;4.724;2022-09-25T06:15:38;10.80;99.90
27540;DHT22;15906;52.046;4.724;2022-09-25T06:18:05;10.90;99.90
27540;DHT22;15906;52.046;4.724;2022-09-25T06:20:31;10.80;99.90
27540;DHT22;15906;52.046;4.724;2022-09-25T06:22:58;10.70;99.90
27540;DHT22;15906;52.046;4.724;2022-09-25T06:25:44;10.70;99.90
27540;DHT22;15906;52.046;4.724;2022-09-25T06:28:10;10.80;99.90
27540;DHT22;15906;52.046;4.724;2022-09-25T06:30:37;10.80;99.90
27540;DHT22;15906;52.046;4.724;2022-09-25T06:33:09;10.90;99.90
27540;DHT22;15906;52.046;4.724;2022-09-25T06:35:41;10.90;99.90
27540;DHT22;15906;52.046;4.724;2022-09-25T06:38:07;11.00;99.90
27540;DHT22;15906;52.046;4.724;2022-09-25T06:40:32;11.10;99.90
27540;DHT22;15906;52.046;4.724;2022-09-25T06:43:02;11.10;99.90
27540;DHT22;15906;52.046;4.724;2022-09-25T06:45:30;11.20;99.90
27540;DHT22;15906;52.046;4.724;2022-09-25T06:48:02;11.30;99.90
27540;DHT22;15906;52.046;4.724;2022-09-25T06:50:34;11.40;99.90
27540;DHT22;15906;52.046;4.724;2022-09-25T06:53:00;11.50;99.90
27540;DHT22;15906;52.046;4.724;2022-09-25T06:55:27;11.40;99.90
27540;DHT22;15906;52.046;4.724;2022-09-25T06:57:53;11.50;99.90
27540;DHT22;15906;52.046;4.724;2022-09-25T07:00:19;11.60;99.90
27540;DHT22;15906;52.046;4.724;2022-09-25T07:02:44;11.70;99.90
27540;DHT22;15906;52.046;4.724;2022-09-25T07:05:28;11.70;99.90
27540;DHT22;15906;52.046;4.724;2022-09-25T07:07:54;11.80;99.90
27540;DHT22;15906;52.046;4.724;2022-09-25T07:10:20;11.90;99.90
27540;DHT22;15906;52.046;4.724;2022-09-25T07:12:46;11.90;99.90
27540;DHT22;15906;52.046;4.724;2022-09-25T07:15:12;12.10;99.90
27540;DHT22;15906;52.046;4.724;2022-09-25T07:17:42;12.10;99.90
27540;DHT22;15906;52.046;4.724;2022-09-25T07:20:09;12.10;99.90
27540;DHT22;15906;52.046;4.724;2022-09-25T07:22:37;12.20;99.90
27540;DHT22;15906;52.046;4.724;2022-09-25T07:25:03;12.30;99.90
27540;DHT22;15906;52.046;4.724;2022-09-25T07:27:29;12.40;99.90
27540;DHT22;15906;52.046;4.724;2022-09-25T07:29:54;12.50;99.90
27540;DHT22;15906;52.046;4.724;2022-09-25T07:32:20;12.60;99.90
27540;DHT22;15906;52.046;4.724;2022-09-25T07:34:46;12.60;99.90
27540;DHT22;15906;52.046;4.724;2022-09-25T07:37:14;12.60;99.90
27540;DHT22;15906;52.046;4.724;2022-09-25T07:39:40;12.60;99.90
27540;DHT22;15906;52.046;4.724;2022-09-25T07:42:05;12.70;99.90
27540;DHT22;15906;52.046;4.724;2022-09-25T07:44:31;12.70;99.90
27540;DHT22;15906;52.046;4.724;2022-09-25T07:46:56;12.70;99.90
27540;DHT22;15906;52.046;4.724;2022-09-25T07:49:22;12.70;99.90
27540;DHT22;15906;52.046;4.724;2022-09-25T07:51:48;12.70;99.90
27540;DHT22;15906;52.046;4.724;2022-09-25T07:54:13;12.70;99.90
27540;DHT22;15906;52.046;4.724;2022-09-25T07:56:39;12.80;99.90
27540;DHT22;15906;52.046;4.724;2022-09-25T07:59:04;12.90;99.90
27540;DHT22;15906;52.046;4.724;2022-09-25T08:01:30;13.10;99.90
27540;DHT22;15906;52.046;4.724;2022-09-25T08:03:55;13.10;99.90
27540;DHT22;15906;52.046;4.724;2022-09-25T08:06:21;13.10;99.90
27540;DHT22;15906;52.046;4.724;2022-09-25T08:08:46;13.30;99.90
27540;DHT22;15906;52.046;4.724;2022-09-25T08:11:14;13.40;99.90
27540;DHT22;15906;52.046;4.724;2022-09-25T08:13:41;13.60;99.90
27540;DHT22;15906;52.046;4.724;2022-09-25T08:16:13;13.80;99.90
27540;DHT22;15906;52.046;4.724;2022-09-25T08:18:41;14.00;99.90
27540;DHT22;15906;52.046;4.724;2022-09-25T08:21:07;14.10;99.90
27540;DHT22;15906;52.046;4.724;2022-09-25T08:23:33;14.40;99.90
27540;DHT22;15906;52.046;4.724;2022-09-25T08:25:59;14.60;99.90
27540;DHT22;15906;52.046;4.724;2022-09-25T08:28:26;14.60;99.90
27540;DHT22;15906;52.046;4.724;2022-09-25T08:30:52;14.50;99.90
27540;DHT22;15906;52.046;4.724;2022-09-25T08:33:18;14.80;99.90
27540;DHT22;15906;52.046;4.724;2022-09-25T08:36:00;14.80;99.90
27540;DHT22;15906;52.046;4.724;2022-09-25T08:38:26;14.90;99.90
27540;DHT22;15906;52.046;4.724;2022-09-25T08:41:30;14.90;99.90
27540;DHT22;15906;52.046;4.724;2022-09-25T08:44:58;15.00;99.90
27540;DHT22;15906;52.046;4.724;2022-09-25T08:47:09;14.90;99.90
27540;DHT22;15906;52.046;4.724;2022-09-25T08:50:13;15.00;99.90
27540;DHT22;15906;52.046;4.724;2022-09-25T08:52:46;15.40;99.90
27540;DHT22;15906;52.046;4.724;2022-09-25T08:55:21;15.60;99.90
27540;DHT22;15906;52.046;4.724;2022-09-25T08:57:48;15.90;99.90
27540;DHT22;15906;52.046;4.724;2022-09-25T09:00:18;16.30;99.90
27540;DHT22;15906;52.046;4.724;2022-09-25T09:02:51;16.60;99.90
27540;DHT22;15906;52.046;4.724;2022-09-25T09:05:28;16.90;99.90
27540;DHT22;15906;52.046;4.724;2022-09-25T09:08:10;17.00;99.90
27540;DHT22;15906;52.046;4.724;2022-09-25T09:13:27;17.20;99.90
27540;DHT22;15906;52.046;4.724;2022-09-25T09:16:01;17.10;99.90
27540;DHT22;15906;52.046;4.724;2022-09-25T09:18:29;17.40;99.90
27540;DHT22;15906;52.046;4.724;2022-09-25T09:21:07;17.70;99.90
27540;DHT22;15906;52.046;4.724;2022-09-25T09:24:04;17.90;99.90
27540;DHT22;15906;52.046;4.724;2022-09-25T09:29:30;18.50;99.90
27540;DHT22;15906;52.046;4.724;2022-09-25T09:40:15;18.90;99.90
27540;DHT22;15906;52.046;4.724;2022-09-25T09:43:22;19.10;99.90
27540;DHT22;15906;52.046;4.724;2022-09-25T09:46:40;19.40;99.90
27540;DHT22;15906;52.046;4.724;2022-09-25T09:51:54;19.60;99.90
27540;DHT22;15906;52.046;4.724;2022-09-25T09:54:32;19.70;99.90
27540;DHT22;15906;52.046;4.724;2022-09-25T09:57:00;19.90;99.90
27540;DHT22;15906;52.046;4.724;2022-09-25T09:59:35;19.80;99.90
27540;DHT22;15906;52.046;4.724;2022-09-25T10:05:03;19.90;99.90
27540;DHT22;15906;52.046;4.724;2022-09-25T10:07:33;19.80;99.90
27540;DHT22;15906;52.046;4.724;2022-09-25T10:10:00;19.60;99.90
27540;DHT22;15906;52.046;4.724;2022-09-25T10:12:34;19.90;99.90
27540;DHT22;15906;52.046;4.724;2022-09-25T10:15:04;19.40;99.90
27540;DHT22;15906;52.046;4.724;2022-09-25T10:17:37;19.20;99.90
27540;DHT22;15906;52.046;4.724;2022-09-25T10:20:14;19.40;99.90
27540;DHT22;15906;52.046;4.724;2022-09-25T10:22:43;19.50;99.90
27540;DHT22;15906;52.046;4.724;2022-09-25T10:25:10;19.60;99.90
27540;DHT22;15906;52.046;4.724;2022-09-25T10:27:41;19.40;99.90
27540;DHT22;15906;52.046;4.724;2022-09-25T10:32:42;19.70;99.90
27540;DHT22;15906;52.046;4.724;2022-09-25T10:35:21;19.60;99.90
27540;DHT22;15906;52.046;4.724;2022-09-25T10:37:50;19.40;99.90
27540;DHT22;15906;52.046;4.724;2022-09-25T10:43:16;20.20;99.90
27540;DHT22;15906;52.046;4.724;2022-09-25T10:45:42;20.00;99.90
27540;DHT22;15906;52.046;4.724;2022-09-25T10:48:35;19.90;99.90
27540;DHT22;15906;52.046;4.724;2022-09-25T10:51:20;20.00;99.90
27540;DHT22;15906;52.046;4.724;2022-09-25T10:53:50;19.90;99.90
27540;DHT22;15906;52.046;4.724;2022-09-25T10:56:22;19.60;99.90
27540;DHT22;15906;52.046;4.724;2022-09-25T10:58:55;19.90;99.90
27540;DHT22;15906;52.046;4.724;2022-09-25T11:01:33;20.20;99.90
27540;DHT22;15906;52.046;4.724;2022-09-25T11:04:00;20.50;99.90
27540;DHT22;15906;52.046;4.724;2022-09-25T11:06:29;20.00;99.90
27540;DHT22;15906;52.046;4.724;2022-09-25T11:11:26;19.40;99.90
27540;DHT22;15906;52.046;4.724;2022-09-25T11:13:56;19.60;99.90
27540;DHT22;15906;52.046;4.724;2022-09-25T11:16:42;19.60;99.90
27540;DHT22;15906;52.046;4.724;2022-09-25T11:19:13;19.60;99.90
27540;DHT22;15906;52.046;4.724;2022-09-25T11:25:08;19.30;99.90
27540;DHT22;15906;52.046;4.724;2022-09-25T11:27:50;19.10;99.90
27540;DHT22;15906;52.046;4.724;2022-09-25T11:30:19;19.50;99.90
27540;DHT22;15906;52.046;4.724;2022-09-25T11:33:03;19.70;99.90
27540;DHT22;15906;52.046;4.724;2022-09-25T11:36:31;20.20;99.90
27540;DHT22;15906;52.046;4.724;2022-09-25T11:38:50;20.70;99.90
27540;DHT22;15906;52.046;4.724;2022-09-25T11:42:04;21.00;99.90
27540;DHT22;15906;52.046;4.724;2022-09-25T11:44:33;21.00;99.90
27540;DHT22;15906;52.046;4.724;2022-09-25T11:47:07;21.30;99.90
27540;DHT22;15906;52.046;4.724;2022-09-25T11:49:38;21.30;99.90
27540;DHT22;15906;52.046;4.724;2022-09-25T11:52:35;21.50;99.90
27540;DHT22;15906;52.046;4.724;2022-09-25T11:58:27;21.30;99.90
27540;DHT22;15906;52.046;4.724;2022-09-25T12:12:09;20.40;99.90
27540;DHT22;15906;52.046;4.724;2022-09-25T12:19:51;19.90;99.90
27540;DHT22;15906;52.046;4.724;2022-09-25T12:28:00;19.30;99.90
27540;DHT22;15906;52.046;4.724;2022-09-25T12:30:38;19.20;99.90
27540;DHT22;15906;52.046;4.724;2022-09-25T12:38:25;18.20;99.90
27540;DHT22;15906;52.046;4.724;2022-09-25T12:43:29;17.50;99.90
27540;DHT22;15906;52.046;4.724;2022-09-25T12:46:08;17.00;99.90
27540;DHT22;15906;52.046;4.724;2022-09-25T12:48:43;17.00;99.90
27540;DHT22;15906;52.046;4.724;2022-09-25T12:51:22;16.90;99.90
27540;DHT22;15906;52.046;4.724;2022-09-25T12:53:54;16.80;99.90
27540;DHT22;15906;52.046;4.724;2022-09-25T12:56:26;16.90;99.90
27540;DHT22;15906;52.046;4.724;2022-09-25T12:59:01;16.90;99.90
27540;DHT22;15906;52.046;4.724;2022-09-25T13:10:02;16.60;99.90
27540;DHT22;15906;52.046;4.724;2022-09-25T13:12:37;16.70;99.90
27540;DHT22;15906;52.046;4.724;2022-09-25T13:17:37;17.00;99.90
27540;DHT22;15906;52.046;4.724;2022-09-25T13:25:27;16.90;99.90
27540;DHT22;15906;52.046;4.724;2022-09-25T13:27:53;16.90;99.90
27540;DHT22;15906;52.046;4.724;2022-09-25T13:30:24;16.80;99.90
27540;DHT22;15906;52.046;4.724;2022-09-25T13:32:52;16.80;99.90
27540;DHT22;15906;52.046;4.724;2022-09-25T13:35:19;16.80;99.90
27540;DHT22;15906;52.046;4.724;2022-09-25T13:37:47;16.70;99.90
27540;DHT22;15906;52.046;4.724;2022-09-25T13:40:18;16.60;99.90
27540;DHT22;15906;52.046;4.724;2022-09-25T13:43:16;16.60;99.90
27540;DHT22;15906;52.046;4.724;2022-09-25T13:45:45;16.70;99.90
27540;DHT22;15906;52.046;4.724;2022-09-25T14:01:40;17.00;99.90
27540;DHT22;15906;52.046;4.724;2022-09-25T14:04:29;17.00;99.90
27540;DHT22;15906;52.046;4.724;2022-09-25T14:07:04;17.20;99.90
27540;DHT22;15906;52.046;4.724;2022-09-25T14:09:31;17.30;99.90
27540;DHT22;15906;52.046;4.724;2022-09-25T14:14:33;17.10;99.90
27540;DHT22;15906;52.046;4.724;2022-09-25T14:17:00;17.10;99.90
27540;DHT22;15906;52.046;4.724;2022-09-25T14:19:34;17.10;99.90
27540;DHT22;15906;52.046;4.724;2022-09-25T14:22:02;17.10;99.90
27540;DHT22;15906;52.046;4.724;2022-09-25T14:24:29;17.20;99.90
27540;DHT22;15906;52.046;4.724;2022-09-25T14:26:58;17.10;99.90
27540;DHT22;15906;52.046;4.724;2022-09-25T14:29:47;16.80;99.90
27540;DHT22;15906;52.046;4.724;2022-09-25T14:32:20;16.80;99.90
27540;DHT22;15906;52.046;4.724;2022-09-25T14:38:28;16.90;99.90
27540;DHT22;15906;52.046;4.724;2022-09-25T14:41:07;16.90;99.90
27540;DHT22;15906;52.046;4.724;2022-09-25T14:46:17;16.80;99.90
27540;DHT22;15906;52.046;4.724;2022-09-25T14:48:55;16.60;99.90
27540;DHT22;15906;52.046;4.724;2022-09-25T14:51:31;16.70;99.90
27540;DHT22;15906;52.046;4.724;2022-09-25T14:54:05;16.70;99.90
27540;DHT22;15906;52.046;4.724;2022-09-25T14:56:32;16.50;99.90
27540;DHT22;15906;52.046;4.724;2022-09-25T14:59:09;16.10;99.90
27540;DHT22;15906;52.046;4.724;2022-09-25T15:01:47;15.90;99.90
27540;DHT22;15906;52.046;4.724;2022-09-25T15:04:24;15.80;99.90
27540;DHT22;15906;52.046;4.724;2022-09-25T15:09:39;16.00;99.90
27540;DHT22;15906;52.046;4.724;2022-09-25T15:12:26;16.00;99.90
27540;DHT22;15906;52.046;4.724;2022-09-25T15:15:04;15.70;99.90
27540;DHT22;15906;52.046;4.724;2022-09-25T15:17:32;15.90;99.90
27540;DHT22;15906;52.046;4.724;2022-09-25T15:20:03;15.90;99.90
27540;DHT22;15906;52.046;4.724;2022-09-25T15:22:37;16.00;99.90
27540;DHT22;15906;52.046;4.724;2022-09-25T15:25:05;15.90;99.90
27540;DHT22;15906;52.046;4.724;2022-09-25T15:27:32;15.90;99.90
27540;DHT22;15906;52.046;4.724;2022-09-25T15:29:58;16.00;99.90
27540;DHT22;15906;52.046;4.724;2022-09-25T15:32:36;16.00;99.90
27540;DHT22;15906;52.046;4.724;2022-09-25T15:37:35;16.00;99.90
27540;DHT22;15906;52.046;4.724;2022-09-25T15:42:47;15.80;99.90
27540;DHT22;15906;52.046;4.724;2022-09-25T15:45:37;15.80;99.90
27540;DHT22;15906;52.046;4.724;2022-09-25T15:48:24;15.90;99.90
27540;DHT22;15906;52.046;4.724;2022-09-25T15:50:52;15.80;99.90
27540;DHT22;15906;52.046;4.724;2022-09-25T15:53:37;15.80;99.90
27540;DHT22;15906;52.046;4.724;2022-09-25T15:56:17;15.70;99.90
27540;DHT22;15906;52.046;4.724;2022-09-25T16:01:42;15.80;99.90
27540;DHT22;15906;52.046;4.724;2022-09-25T16:04:26;15.70;99.90
27540;DHT22;15906;52.046;4.724;2022-09-25T16:07:33;15.70;99.90
27540;DHT22;15906;52.046;4.724;2022-09-25T16:10:09;15.70;99.90
27540;DHT22;15906;52.046;4.724;2022-09-25T16:12:50;15.80;99.90
27540;DHT22;15906;52.046;4.724;2022-09-25T16:17:55;15.70;99.90
27540;DHT22;15906;52.046;4.724;2022-09-25T16:22:57;15.70;99.90
27540;DHT22;15906;52.046;4.724;2022-09-25T16:25:35;15.70;99.90
27540;DHT22;15906;52.046;4.724;2022-09-25T16:28:07;15.70;99.90
27540;DHT22;15906;52.046;4.724;2022-09-25T16:30:33;15.70;99.90
27540;DHT22;15906;52.046;4.724;2022-09-25T16:33:22;15.70;99.90
27540;DHT22;15906;52.046;4.724;2022-09-25T16:35:49;15.70;99.90
27540;DHT22;15906;52.046;4.724;2022-09-25T16:38:32;15.50;99.90
27540;DHT22;15906;52.046;4.724;2022-09-25T16:41:05;15.60;99.90
27540;DHT22;15906;52.046;4.724;2022-09-25T16:43:31;15.60;99.90
27540;DHT22;15906;52.046;4.724;2022-09-25T16:46:15;15.50;99.90
27540;DHT22;15906;52.046;4.724;2022-09-25T16:48:43;15.40;99.90
27540;DHT22;15906;52.046;4.724;2022-09-25T16:51:13;15.50;99.90
27540;DHT22;15906;52.046;4.724;2022-09-25T16:53:41;15.50;99.90
27540;DHT22;15906;52.046;4.724;2022-09-25T16:56:07;15.40;99.90
27540;DHT22;15906;52.046;4.724;2022-09-25T16:58:32;15.40;99.90
27540;DHT22;15906;52.046;4.724;2022-09-25T17:00:58;15.40;99.90
27540;DHT22;15906;52.046;4.724;2022-09-25T17:03:28;15.40;99.90
27540;DHT22;15906;52.046;4.724;2022-09-25T17:06:14;15.30;99.90
27540;DHT22;15906;52.046;4.724;2022-09-25T17:08:40;15.40;99.90
27540;DHT22;15906;52.046;4.724;2022-09-25T17:11:05;15.30;99.90
27540;DHT22;15906;52.046;4.724;2022-09-25T17:13:31;15.30;99.90
27540;DHT22;15906;52.046;4.724;2022-09-25T17:15:56;15.20;99.90
27540;DHT22;15906;52.046;4.724;2022-09-25T17:18:22;15.30;99.90
27540;DHT22;15906;52.046;4.724;2022-09-25T17:20:52;15.00;99.90
27540;DHT22;15906;52.046;4.724;2022-09-25T17:23:20;15.00;99.90
27540;DHT22;15906;52.046;4.724;2022-09-25T17:26:10;14.90;99.90
27540;DHT22;15906;52.046;4.724;2022-09-25T17:28:37;14.90;99.90
27540;DHT22;15906;52.046;4.724;2022-09-25T17:31:03;14.80;99.90
27540;DHT22;15906;52.046;4.724;2022-09-25T17:33:29;14.70;99.90
27540;DHT22;15906;52.046;4.724;2022-09-25T17:35:59;14.60;99.90
27540;DHT22;15906;52.046;4.724;2022-09-25T17:38:27;14.50;99.90
27540;DHT22;15906;52.046;4.724;2022-09-25T17:40:54;14.60;99.90
27540;DHT22;15906;52.046;4.724;2022-09-25T17:43:21;14.50;99.90
27540;DHT22;15906;52.046;4.724;2022-09-25T17:48:18;14.50;99.90
27540;DHT22;15906;52.046;4.724;2022-09-25T17:50:49;14.60;99.90
27540;DHT22;15906;52.046;4.724;2022-09-25T17:53:17;14.50;99.90
27540;DHT22;15906;52.046;4.724;2022-09-25T17:55:44;14.60;99.90
27540;DHT22;15906;52.046;4.724;2022-09-25T17:58:11;14.60;99.90
27540;DHT22;15906;52.046;4.724;2022-09-25T18:00:36;14.60;99.90
27540;DHT22;15906;52.046;4.724;2022-09-25T18:03:02;14.50;99.90
27540;DHT22;15906;52.046;4.724;2022-09-25T18:05:27;14.50;99.90
27540;DHT22;15906;52.046;4.724;2022-09-25T18:07:54;14.50;99.90
27540;DHT22;15906;52.046;4.724;2022-09-25T18:10:20;14.60;99.90
27540;DHT22;15906;52.046;4.724;2022-09-25T18:12:45;14.60;99.90
27540;DHT22;15906;52.046;4.724;2022-09-25T18:15:11;14.60;99.90
27540;DHT22;15906;52.046;4.724;2022-09-25T18:17:38;14.50;99.90
27540;DHT22;15906;52.046;4.724;2022-09-25T18:20:04;14.60;99.90